sensor_id;sensor_type;location;lat;lon;timestamp;P1;durP1;ratioP1;P2;durP2;ratioP2
17059;SDS011;8646;49.716;9.266;2022-11-18T00:01:04;24.30;;;9.43;;
17059;SDS011;8646;49.716;9.266;2022-11-18T00:04:08;24.57;;;9.10;;
17059;SDS011;8646;49.716;9.266;2022-11-18T00:07:11;22.07;;;9.40;;
17059;SDS011;8646;49.716;9.266;2022-11-18T00:10:14;20.57;;;7.60;;
17059;SDS011;8646;49.716;9.266;2022-11-18T00:13:19;26.77;;;7.53;;
17059;SDS011;8646;49.716;9.266;2022-11-18T00:16:40;18.93;;;6.40;;
17059;SDS011;8646;49.716;9.266;2022-11-18T00:19:43;24.07;;;8.23;;
17059;SDS011;8646;49.716;9.266;2022-11-18T00:22:45;24.57;;;7.27;;
17059;SDS011;8646;49.716;9.266;2022-11-18T00:25:48;19.30;;;7.17;;
17059;SDS011;8646;49.716;9.266;2022-11-18T00:28:53;23.67;;;8.03;;
17059;SDS011;8646;49.716;9.266;2022-11-18T00:31:55;25.93;;;8.13;;
17059;SDS011;8646;49.716;9.266;2022-11-18T00:34:59;36.93;;;8.67;;
17059;SDS011;8646;49.716;9.266;2022-11-18T00:38:02;42.83;;;10.23;;
17059;SDS011;8646;49.716;9.266;2022-11-18T00:41:06;41.83;;;9.93;;
17059;SDS011;8646;49.716;9.266;2022-11-18T00:44:12;24.57;;;7.57;;
17059;SDS011;8646;49.716;9.266;2022-11-18T00:47:13;37.23;;;8.73;;
17059;SDS011;8646;49.716;9.266;2022-11-18T00:50:16;36.00;;;9.53;;
17059;SDS011;8646;49.716;9.266;2022-11-18T00:53:19;33.60;;;8.40;;
17059;SDS011;8646;49.716;9.266;2022-11-18T00:56:23;55.97;;;9.47;;
17059;SDS011;8646;49.716;9.266;2022-11-18T00:59:27;31.80;;;7.77;;
17059;SDS011;8646;49.716;9.266;2022-11-18T01:02:30;32.27;;;9.60;;
17059;SDS011;8646;49.716;9.266;2022-11-18T01:05:33;30.90;;;8.30;;
17059;SDS011;8646;49.716;9.266;2022-11-18T01:08:36;17.67;;;7.17;;
17059;SDS011;8646;49.716;9.266;2022-11-18T01:11:39;19.97;;;7.33;;
17059;SDS011;8646;49.716;9.266;2022-11-18T01:15:00;21.27;;;7.50;;
17059;SDS011;8646;49.716;9.266;2022-11-18T01:18:03;23.17;;;7.27;;
17059;SDS011;8646;49.716;9.266;2022-11-18T01:21:06;16.63;;;6.80;;
17059;SDS011;8646;49.716;9.266;2022-11-18T01:24:08;18.90;;;7.13;;
17059;SDS011;8646;49.716;9.266;2022-11-18T01:27:11;29.10;;;7.30;;
17059;SDS011;8646;49.716;9.266;2022-11-18T01:30:15;38.93;;;9.00;;
17059;SDS011;8646;49.716;9.266;2022-11-18T01:33:18;42.40;;;9.47;;
17059;SDS011;8646;49.716;9.266;2022-11-18T01:36:22;26.83;;;7.73;;
17059;SDS011;8646;49.716;9.266;2022-11-18T01:39:26;32.33;;;7.90;;
17059;SDS011;8646;49.716;9.266;2022-11-18T01:42:28;33.33;;;9.13;;
17059;SDS011;8646;49.716;9.266;2022-11-18T01:45:33;29.43;;;9.30;;
17059;SDS011;8646;49.716;9.266;2022-11-18T01:48:38;30.83;;;8.97;;
17059;SDS011;8646;49.716;9.266;2022-11-18T01:51:44;32.83;;;8.83;;
17059;SDS011;8646;49.716;9.266;2022-11-18T01:54:51;36.27;;;10.20;;
17059;SDS011;8646;49.716;9.266;2022-11-18T01:58:00;43.80;;;10.80;;
17059;SDS011;8646;49.716;9.266;2022-11-18T02:01:08;48.13;;;12.17;;
17059;SDS011;8646;49.716;9.266;2022-11-18T02:04:11;50.97;;;11.83;;
17059;SDS011;8646;49.716;9.266;2022-11-18T02:07:15;36.60;;;11.33;;
17059;SDS011;8646;49.716;9.266;2022-11-18T02:10:22;35.00;;;11.40;;
17059;SDS011;8646;49.716;9.266;2022-11-18T02:13:26;39.07;;;10.63;;
17059;SDS011;8646;49.716;9.266;2022-11-18T02:16:33;36.07;;;11.30;;
17059;SDS011;8646;49.716;9.266;2022-11-18T02:19:50;28.63;;;8.83;;
17059;SDS011;8646;49.716;9.266;2022-11-18T02:30:38;31.03;;;10.23;;
17059;SDS011;8646;49.716;9.266;2022-11-18T02:33:48;37.53;;;10.93;;
17059;SDS011;8646;49.716;9.266;2022-11-18T02:36:56;32.73;;;10.17;;
17059;SDS011;8646;49.716;9.266;2022-11-18T02:40:04;33.73;;;10.43;;
17059;SDS011;8646;49.716;9.266;2022-11-18T02:43:12;30.50;;;9.93;;
17059;SDS011;8646;49.716;9.266;2022-11-18T02:46:23;32.23;;;10.67;;
17059;SDS011;8646;49.716;9.266;2022-11-18T02:49:30;36.40;;;9.87;;
17059;SDS011;8646;49.716;9.266;2022-11-18T02:52:37;37.17;;;11.13;;
17059;SDS011;8646;49.716;9.266;2022-11-18T02:55:43;35.37;;;11.30;;
17059;SDS011;8646;49.716;9.266;2022-11-18T02:58:47;37.57;;;11.10;;
17059;SDS011;8646;49.716;9.266;2022-11-18T03:01:52;32.77;;;10.23;;
17059;SDS011;8646;49.716;9.266;2022-11-18T03:04:55;34.50;;;10.20;;
17059;SDS011;8646;49.716;9.266;2022-11-18T03:08:01;30.57;;;8.93;;
17059;SDS011;8646;49.716;9.266;2022-11-18T03:11:10;33.33;;;9.63;;
17059;SDS011;8646;49.716;9.266;2022-11-18T03:14:19;25.30;;;9.37;;
17059;SDS011;8646;49.716;9.266;2022-11-18T03:17:31;27.20;;;9.13;;
17059;SDS011;8646;49.716;9.266;2022-11-18T03:20:41;35.30;;;10.23;;
17059;SDS011;8646;49.716;9.266;2022-11-18T03:23:50;32.87;;;10.40;;
17059;SDS011;8646;49.716;9.266;2022-11-18T03:27:04;31.37;;;10.17;;
17059;SDS011;8646;49.716;9.266;2022-11-18T03:30:14;34.20;;;10.67;;
17059;SDS011;8646;49.716;9.266;2022-11-18T03:33:23;36.20;;;9.87;;
17059;SDS011;8646;49.716;9.266;2022-11-18T03:36:32;26.90;;;8.80;;
17059;SDS011;8646;49.716;9.266;2022-11-18T03:39:41;34.20;;;10.07;;
17059;SDS011;8646;49.716;9.266;2022-11-18T03:42:48;32.73;;;8.93;;
17059;SDS011;8646;49.716;9.266;2022-11-18T03:45:53;26.43;;;8.80;;
17059;SDS011;8646;49.716;9.266;2022-11-18T03:49:02;28.60;;;9.20;;
17059;SDS011;8646;49.716;9.266;2022-11-18T03:52:10;31.73;;;9.13;;
17059;SDS011;8646;49.716;9.266;2022-11-18T03:55:17;28.90;;;9.40;;
17059;SDS011;8646;49.716;9.266;2022-11-18T03:58:28;27.87;;;9.13;;
17059;SDS011;8646;49.716;9.266;2022-11-18T04:01:37;23.07;;;7.93;;
17059;SDS011;8646;49.716;9.266;2022-11-18T04:04:47;28.87;;;9.67;;
17059;SDS011;8646;49.716;9.266;2022-11-18T04:07:53;29.37;;;9.17;;
17059;SDS011;8646;49.716;9.266;2022-11-18T04:10:59;30.27;;;8.90;;
17059;SDS011;8646;49.716;9.266;2022-11-18T04:14:08;27.07;;;9.30;;
17059;SDS011;8646;49.716;9.266;2022-11-18T04:17:13;28.57;;;9.53;;
17059;SDS011;8646;49.716;9.266;2022-11-18T04:20:19;30.03;;;9.53;;
17059;SDS011;8646;49.716;9.266;2022-11-18T04:23:23;26.70;;;8.37;;
17059;SDS011;8646;49.716;9.266;2022-11-18T04:26:26;27.40;;;8.00;;
17059;SDS011;8646;49.716;9.266;2022-11-18T04:29:29;23.70;;;8.07;;
17059;SDS011;8646;49.716;9.266;2022-11-18T04:32:32;23.50;;;7.80;;
17059;SDS011;8646;49.716;9.266;2022-11-18T04:35:36;32.37;;;7.57;;
17059;SDS011;8646;49.716;9.266;2022-11-18T04:38:39;30.83;;;8.10;;
17059;SDS011;8646;49.716;9.266;2022-11-18T04:41:42;27.87;;;6.53;;
17059;SDS011;8646;49.716;9.266;2022-11-18T04:44:56;37.37;;;7.70;;
17059;SDS011;8646;49.716;9.266;2022-11-18T04:47:59;36.77;;;7.87;;
17059;SDS011;8646;49.716;9.266;2022-11-18T04:51:05;25.10;;;5.87;;
17059;SDS011;8646;49.716;9.266;2022-11-18T04:54:08;32.63;;;8.17;;
17059;SDS011;8646;49.716;9.266;2022-11-18T04:57:11;33.37;;;8.20;;
17059;SDS011;8646;49.716;9.266;2022-11-18T05:00:14;43.03;;;9.17;;
17059;SDS011;8646;49.716;9.266;2022-11-18T05:03:18;39.97;;;9.30;;
17059;SDS011;8646;49.716;9.266;2022-11-18T05:06:22;49.17;;;9.33;;
17059;SDS011;8646;49.716;9.266;2022-11-18T05:09:25;48.60;;;9.13;;
17059;SDS011;8646;49.716;9.266;2022-11-18T05:12:32;51.87;;;9.67;;
17059;SDS011;8646;49.716;9.266;2022-11-18T05:15:50;38.37;;;9.60;;
17059;SDS011;8646;49.716;9.266;2022-11-18T05:18:53;32.80;;;8.27;;
17059;SDS011;8646;49.716;9.266;2022-11-18T05:21:57;35.37;;;9.00;;
17059;SDS011;8646;49.716;9.266;2022-11-18T05:25:00;33.43;;;9.03;;
17059;SDS011;8646;49.716;9.266;2022-11-18T05:28:02;28.80;;;8.43;;
17059;SDS011;8646;49.716;9.266;2022-11-18T05:31:06;26.43;;;8.43;;
17059;SDS011;8646;49.716;9.266;2022-11-18T05:34:09;28.10;;;8.87;;
17059;SDS011;8646;49.716;9.266;2022-11-18T05:37:14;28.47;;;9.00;;
17059;SDS011;8646;49.716;9.266;2022-11-18T05:40:16;27.13;;;8.03;;
17059;SDS011;8646;49.716;9.266;2022-11-18T05:43:19;29.10;;;7.93;;
17059;SDS011;8646;49.716;9.266;2022-11-18T05:46:21;25.80;;;8.30;;
17059;SDS011;8646;49.716;9.266;2022-11-18T05:49:24;34.90;;;8.50;;
17059;SDS011;8646;49.716;9.266;2022-11-18T05:52:28;30.10;;;8.80;;
17059;SDS011;8646;49.716;9.266;2022-11-18T05:55:32;29.63;;;8.63;;
17059;SDS011;8646;49.716;9.266;2022-11-18T05:58:39;30.17;;;8.57;;
17059;SDS011;8646;49.716;9.266;2022-11-18T06:01:43;34.97;;;8.57;;
17059;SDS011;8646;49.716;9.266;2022-11-18T06:04:49;38.60;;;9.23;;
17059;SDS011;8646;49.716;9.266;2022-11-18T06:07:58;25.87;;;8.43;;
17059;SDS011;8646;49.716;9.266;2022-11-18T06:11:01;19.20;;;6.40;;
17059;SDS011;8646;49.716;9.266;2022-11-18T06:14:06;14.97;;;4.97;;
17059;SDS011;8646;49.716;9.266;2022-11-18T06:17:13;7.67;;;2.63;;
17059;SDS011;8646;49.716;9.266;2022-11-18T06:20:20;8.57;;;2.80;;
17059;SDS011;8646;49.716;9.266;2022-11-18T06:23:25;7.70;;;2.90;;
17059;SDS011;8646;49.716;9.266;2022-11-18T06:26:29;5.73;;;2.03;;
17059;SDS011;8646;49.716;9.266;2022-11-18T06:29:32;2.97;;;1.40;;
17059;SDS011;8646;49.716;9.266;2022-11-18T06:32:34;6.20;;;1.30;;
17059;SDS011;8646;49.716;9.266;2022-11-18T06:35:37;4.00;;;1.27;;
17059;SDS011;8646;49.716;9.266;2022-11-18T06:38:42;2.80;;;1.10;;
17059;SDS011;8646;49.716;9.266;2022-11-18T06:41:45;2.40;;;1.10;;
17059;SDS011;8646;49.716;9.266;2022-11-18T06:44:47;2.77;;;0.90;;
17059;SDS011;8646;49.716;9.266;2022-11-18T06:47:49;1.87;;;1.00;;
17059;SDS011;8646;49.716;9.266;2022-11-18T06:50:52;3.73;;;0.90;;
17059;SDS011;8646;49.716;9.266;2022-11-18T06:53:56;2.80;;;0.90;;
17059;SDS011;8646;49.716;9.266;2022-11-18T06:56:59;3.53;;;0.70;;
17059;SDS011;8646;49.716;9.266;2022-11-18T07:00:02;1.17;;;0.70;;
17059;SDS011;8646;49.716;9.266;2022-11-18T07:03:06;2.33;;;0.73;;
17059;SDS011;8646;49.716;9.266;2022-11-18T07:06:09;1.57;;;0.67;;
17059;SDS011;8646;49.716;9.266;2022-11-18T07:09:16;1.90;;;0.40;;
17059;SDS011;8646;49.716;9.266;2022-11-18T07:12:20;0.67;;;0.43;;
17059;SDS011;8646;49.716;9.266;2022-11-18T07:15:23;2.37;;;0.40;;
17059;SDS011;8646;49.716;9.266;2022-11-18T07:18:26;1.03;;;0.50;;
17059;SDS011;8646;49.716;9.266;2022-11-18T07:21:31;0.40;;;0.30;;
17059;SDS011;8646;49.716;9.266;2022-11-18T07:24:36;2.43;;;0.63;;
17059;SDS011;8646;49.716;9.266;2022-11-18T07:27:39;3.30;;;0.80;;
17059;SDS011;8646;49.716;9.266;2022-11-18T07:30:41;2.40;;;1.30;;
17059;SDS011;8646;49.716;9.266;2022-11-18T07:33:44;4.63;;;1.80;;
17059;SDS011;8646;49.716;9.266;2022-11-18T07:36:48;2.27;;;1.30;;
17059;SDS011;8646;49.716;9.266;2022-11-18T07:39:52;2.90;;;1.20;;
17059;SDS011;8646;49.716;9.266;2022-11-18T07:42:55;3.07;;;1.10;;
17059;SDS011;8646;49.716;9.266;2022-11-18T07:45:58;3.17;;;0.77;;
17059;SDS011;8646;49.716;9.266;2022-11-18T07:49:02;2.17;;;1.07;;
17059;SDS011;8646;49.716;9.266;2022-11-18T07:52:07;4.17;;;1.30;;
17059;SDS011;8646;49.716;9.266;2022-11-18T07:55:11;2.50;;;1.00;;
17059;SDS011;8646;49.716;9.266;2022-11-18T07:58:14;2.87;;;1.17;;
17059;SDS011;8646;49.716;9.266;2022-11-18T08:01:17;3.30;;;1.23;;
17059;SDS011;8646;49.716;9.266;2022-11-18T08:04:21;4.13;;;2.30;;
17059;SDS011;8646;49.716;9.266;2022-11-18T08:07:24;5.33;;;1.90;;
17059;SDS011;8646;49.716;9.266;2022-11-18T08:10:29;5.77;;;2.30;;
17059;SDS011;8646;49.716;9.266;2022-11-18T08:13:32;5.30;;;2.10;;
17059;SDS011;8646;49.716;9.266;2022-11-18T08:16:35;5.70;;;1.80;;
17059;SDS011;8646;49.716;9.266;2022-11-18T08:19:38;2.67;;;1.70;;
17059;SDS011;8646;49.716;9.266;2022-11-18T08:22:40;5.87;;;2.20;;
17059;SDS011;8646;49.716;9.266;2022-11-18T08:25:45;4.00;;;1.70;;
17059;SDS011;8646;49.716;9.266;2022-11-18T08:28:48;3.90;;;1.60;;
17059;SDS011;8646;49.716;9.266;2022-11-18T08:31:51;3.20;;;1.60;;
17059;SDS011;8646;49.716;9.266;2022-11-18T08:34:54;3.87;;;1.80;;
17059;SDS011;8646;49.716;9.266;2022-11-18T08:37:57;2.63;;;1.60;;
17059;SDS011;8646;49.716;9.266;2022-11-18T08:41:02;4.70;;;1.30;;
17059;SDS011;8646;49.716;9.266;2022-11-18T08:44:09;5.00;;;1.80;;
17059;SDS011;8646;49.716;9.266;2022-11-18T08:47:14;2.87;;;1.50;;
17059;SDS011;8646;49.716;9.266;2022-11-18T08:50:17;2.53;;;1.40;;
17059;SDS011;8646;49.716;9.266;2022-11-18T08:53:20;5.43;;;1.87;;
17059;SDS011;8646;49.716;9.266;2022-11-18T08:56:24;3.33;;;1.80;;
17059;SDS011;8646;49.716;9.266;2022-11-18T08:59:27;3.77;;;1.60;;
17059;SDS011;8646;49.716;9.266;2022-11-18T09:02:30;2.67;;;1.60;;
17059;SDS011;8646;49.716;9.266;2022-11-18T09:05:33;5.00;;;2.33;;
17059;SDS011;8646;49.716;9.266;2022-11-18T09:08:36;8.80;;;4.20;;
17059;SDS011;8646;49.716;9.266;2022-11-18T09:11:40;2.53;;;1.90;;
17059;SDS011;8646;49.716;9.266;2022-11-18T09:14:43;2.40;;;1.53;;
17059;SDS011;8646;49.716;9.266;2022-11-18T09:18:07;3.00;;;1.67;;
17059;SDS011;8646;49.716;9.266;2022-11-18T09:21:10;3.27;;;0.70;;
17059;SDS011;8646;49.716;9.266;2022-11-18T09:24:13;2.53;;;1.10;;
17059;SDS011;8646;49.716;9.266;2022-11-18T09:27:17;2.67;;;1.00;;
17059;SDS011;8646;49.716;9.266;2022-11-18T09:30:20;1.57;;;0.70;;
17059;SDS011;8646;49.716;9.266;2022-11-18T09:33:23;1.73;;;1.10;;
17059;SDS011;8646;49.716;9.266;2022-11-18T09:36:27;9.63;;;4.67;;
17059;SDS011;8646;49.716;9.266;2022-11-18T09:39:30;17.83;;;9.43;;
17059;SDS011;8646;49.716;9.266;2022-11-18T09:42:38;5.80;;;3.27;;
17059;SDS011;8646;49.716;9.266;2022-11-18T09:45:48;6.77;;;3.73;;
17059;SDS011;8646;49.716;9.266;2022-11-18T09:48:59;2.50;;;1.60;;
17059;SDS011;8646;49.716;9.266;2022-11-18T09:52:15;1.10;;;1.00;;
17059;SDS011;8646;49.716;9.266;2022-11-18T09:55:21;1.87;;;0.97;;
17059;SDS011;8646;49.716;9.266;2022-11-18T09:58:27;3.83;;;1.90;;
17059;SDS011;8646;49.716;9.266;2022-11-18T10:01:35;3.83;;;2.13;;
17059;SDS011;8646;49.716;9.266;2022-11-18T10:04:38;1.07;;;0.90;;
17059;SDS011;8646;49.716;9.266;2022-11-18T10:07:42;1.63;;;0.80;;
17059;SDS011;8646;49.716;9.266;2022-11-18T10:10:59;3.03;;;0.70;;
17059;SDS011;8646;49.716;9.266;2022-11-18T10:14:13;1.70;;;0.80;;
17059;SDS011;8646;49.716;9.266;2022-11-18T10:17:30;1.00;;;0.60;;
17059;SDS011;8646;49.716;9.266;2022-11-18T10:20:45;1.80;;;0.80;;
17059;SDS011;8646;49.716;9.266;2022-11-18T10:23:54;2.73;;;1.17;;
17059;SDS011;8646;49.716;9.266;2022-11-18T10:27:07;1.80;;;0.90;;
17059;SDS011;8646;49.716;9.266;2022-11-18T10:30:15;2.13;;;0.70;;
17059;SDS011;8646;49.716;9.266;2022-11-18T10:33:24;6.60;;;4.00;;
17059;SDS011;8646;49.716;9.266;2022-11-18T10:36:29;2.50;;;1.43;;
17059;SDS011;8646;49.716;9.266;2022-11-18T10:39:43;2.00;;;1.13;;
17059;SDS011;8646;49.716;9.266;2022-11-18T10:42:52;2.33;;;1.00;;
17059;SDS011;8646;49.716;9.266;2022-11-18T10:45:56;2.97;;;0.90;;
17059;SDS011;8646;49.716;9.266;2022-11-18T10:49:17;3.17;;;1.30;;
17059;SDS011;8646;49.716;9.266;2022-11-18T10:52:20;1.33;;;0.80;;
17059;SDS011;8646;49.716;9.266;2022-11-18T10:55:23;1.70;;;0.80;;
17059;SDS011;8646;49.716;9.266;2022-11-18T10:58:27;1.57;;;1.00;;
17059;SDS011;8646;49.716;9.266;2022-11-18T11:01:33;8.63;;;5.50;;
17059;SDS011;8646;49.716;9.266;2022-11-18T11:04:36;2.23;;;1.40;;
17059;SDS011;8646;49.716;9.266;2022-11-18T11:07:40;1.77;;;0.80;;
17059;SDS011;8646;49.716;9.266;2022-11-18T11:10:43;1.53;;;0.97;;
17059;SDS011;8646;49.716;9.266;2022-11-18T11:13:59;2.30;;;1.23;;
17059;SDS011;8646;49.716;9.266;2022-11-18T11:17:10;1.63;;;0.90;;
17059;SDS011;8646;49.716;9.266;2022-11-18T11:20:17;1.90;;;1.20;;
17059;SDS011;8646;49.716;9.266;2022-11-18T11:23:22;1.93;;;1.40;;
17059;SDS011;8646;49.716;9.266;2022-11-18T11:26:28;2.23;;;1.60;;
17059;SDS011;8646;49.716;9.266;2022-11-18T11:30:07;6.60;;;3.30;;
17059;SDS011;8646;49.716;9.266;2022-11-18T11:33:19;3.30;;;1.90;;
17059;SDS011;8646;49.716;9.266;2022-11-18T11:36:31;3.07;;;1.87;;
17059;SDS011;8646;49.716;9.266;2022-11-18T11:39:53;3.73;;;2.23;;
17059;SDS011;8646;49.716;9.266;2022-11-18T11:46:27;3.47;;;1.40;;
17059;SDS011;8646;49.716;9.266;2022-11-18T11:49:44;4.40;;;1.60;;
17059;SDS011;8646;49.716;9.266;2022-11-18T11:52:58;2.27;;;1.47;;
17059;SDS011;8646;49.716;9.266;2022-11-18T11:56:17;3.57;;;1.70;;
17059;SDS011;8646;49.716;9.266;2022-11-18T11:59:27;4.10;;;1.70;;
17059;SDS011;8646;49.716;9.266;2022-11-18T12:02:56;2.80;;;1.80;;
17059;SDS011;8646;49.716;9.266;2022-11-18T12:06:09;2.97;;;1.97;;
17059;SDS011;8646;49.716;9.266;2022-11-18T12:09:14;2.70;;;1.93;;
17059;SDS011;8646;49.716;9.266;2022-11-18T12:12:24;4.33;;;2.37;;
17059;SDS011;8646;49.716;9.266;2022-11-18T12:15:39;8.20;;;2.70;;
17059;SDS011;8646;49.716;9.266;2022-11-18T12:18:49;3.40;;;2.00;;
17059;SDS011;8646;49.716;9.266;2022-11-18T12:22:00;3.50;;;2.00;;
17059;SDS011;8646;49.716;9.266;2022-11-18T12:25:16;7.33;;;2.23;;
17059;SDS011;8646;49.716;9.266;2022-11-18T12:28:51;4.30;;;2.10;;
17059;SDS011;8646;49.716;9.266;2022-11-18T12:31:55;4.30;;;2.53;;
17059;SDS011;8646;49.716;9.266;2022-11-18T12:35:00;3.10;;;1.97;;
17059;SDS011;8646;49.716;9.266;2022-11-18T12:38:10;3.87;;;2.43;;
17059;SDS011;8646;49.716;9.266;2022-11-18T12:48:59;3.87;;;2.50;;
17059;SDS011;8646;49.716;9.266;2022-11-18T12:52:48;5.70;;;1.90;;
17059;SDS011;8646;49.716;9.266;2022-11-18T12:55:56;6.30;;;2.10;;
17059;SDS011;8646;49.716;9.266;2022-11-18T12:59:00;4.07;;;2.00;;
17059;SDS011;8646;49.716;9.266;2022-11-18T13:02:04;4.97;;;1.83;;
17059;SDS011;8646;49.716;9.266;2022-11-18T13:05:22;4.00;;;1.90;;
17059;SDS011;8646;49.716;9.266;2022-11-18T13:08:27;4.13;;;1.80;;
17059;SDS011;8646;49.716;9.266;2022-11-18T13:11:44;3.57;;;1.70;;
17059;SDS011;8646;49.716;9.266;2022-11-18T13:14:49;5.90;;;2.20;;
17059;SDS011;8646;49.716;9.266;2022-11-18T13:18:13;2.40;;;1.40;;
17059;SDS011;8646;49.716;9.266;2022-11-18T13:21:21;3.40;;;1.63;;
17059;SDS011;8646;49.716;9.266;2022-11-18T13:24:43;4.30;;;1.30;;
17059;SDS011;8646;49.716;9.266;2022-11-18T13:27:51;7.30;;;2.43;;
17059;SDS011;8646;49.716;9.266;2022-11-18T13:31:02;3.50;;;1.53;;
17059;SDS011;8646;49.716;9.266;2022-11-18T13:34:11;4.43;;;1.57;;
17059;SDS011;8646;49.716;9.266;2022-11-18T13:37:20;5.27;;;1.60;;
17059;SDS011;8646;49.716;9.266;2022-11-18T13:40:26;6.43;;;2.70;;
17059;SDS011;8646;49.716;9.266;2022-11-18T13:43:31;8.43;;;4.00;;
17059;SDS011;8646;49.716;9.266;2022-11-18T13:46:34;3.83;;;1.97;;
17059;SDS011;8646;49.716;9.266;2022-11-18T13:49:46;8.70;;;3.60;;
17059;SDS011;8646;49.716;9.266;2022-11-18T13:52:59;15.63;;;7.83;;
17059;SDS011;8646;49.716;9.266;2022-11-18T13:56:13;6.60;;;2.17;;
17059;SDS011;8646;49.716;9.266;2022-11-18T13:59:21;4.73;;;1.40;;
17059;SDS011;8646;49.716;9.266;2022-11-18T14:02:25;6.07;;;2.10;;
17059;SDS011;8646;49.716;9.266;2022-11-18T14:05:28;3.93;;;1.87;;
17059;SDS011;8646;49.716;9.266;2022-11-18T14:08:31;3.90;;;1.40;;
17059;SDS011;8646;49.716;9.266;2022-11-18T14:11:35;5.20;;;1.70;;
17059;SDS011;8646;49.716;9.266;2022-11-18T14:14:41;3.93;;;1.63;;
17059;SDS011;8646;49.716;9.266;2022-11-18T14:17:54;2.73;;;1.40;;
17059;SDS011;8646;49.716;9.266;2022-11-18T14:20:58;3.43;;;1.60;;
17059;SDS011;8646;49.716;9.266;2022-11-18T14:24:03;4.30;;;1.40;;
17059;SDS011;8646;49.716;9.266;2022-11-18T14:30:40;4.50;;;1.93;;
17059;SDS011;8646;49.716;9.266;2022-11-18T14:33:51;5.60;;;2.17;;
17059;SDS011;8646;49.716;9.266;2022-11-18T14:37:08;3.77;;;1.97;;
17059;SDS011;8646;49.716;9.266;2022-11-18T14:40:13;6.50;;;2.10;;
17059;SDS011;8646;49.716;9.266;2022-11-18T14:43:17;5.33;;;2.10;;
17059;SDS011;8646;49.716;9.266;2022-11-18T14:46:21;3.37;;;2.00;;
17059;SDS011;8646;49.716;9.266;2022-11-18T14:49:25;4.23;;;1.90;;
17059;SDS011;8646;49.716;9.266;2022-11-18T14:52:31;5.43;;;2.50;;
17059;SDS011;8646;49.716;9.266;2022-11-18T14:55:33;4.03;;;1.80;;
17059;SDS011;8646;49.716;9.266;2022-11-18T14:58:37;7.80;;;3.13;;
17059;SDS011;8646;49.716;9.266;2022-11-18T15:01:42;9.00;;;3.67;;
17059;SDS011;8646;49.716;9.266;2022-11-18T15:04:45;8.50;;;3.37;;
17059;SDS011;8646;49.716;9.266;2022-11-18T15:07:48;5.20;;;2.10;;
17059;SDS011;8646;49.716;9.266;2022-11-18T15:10:51;5.93;;;2.27;;
17059;SDS011;8646;49.716;9.266;2022-11-18T15:13:55;5.33;;;2.37;;
17059;SDS011;8646;49.716;9.266;2022-11-18T15:16:59;6.23;;;2.57;;
17059;SDS011;8646;49.716;9.266;2022-11-18T15:20:02;5.03;;;2.30;;
17059;SDS011;8646;49.716;9.266;2022-11-18T15:23:07;5.33;;;2.67;;
17059;SDS011;8646;49.716;9.266;2022-11-18T15:26:12;6.10;;;2.70;;
17059;SDS011;8646;49.716;9.266;2022-11-18T15:29:19;7.73;;;2.77;;
17059;SDS011;8646;49.716;9.266;2022-11-18T15:32:25;11.17;;;3.20;;
17059;SDS011;8646;49.716;9.266;2022-11-18T15:35:27;7.97;;;2.93;;
17059;SDS011;8646;49.716;9.266;2022-11-18T15:38:30;8.37;;;3.40;;
17059;SDS011;8646;49.716;9.266;2022-11-18T15:41:34;7.67;;;2.60;;
17059;SDS011;8646;49.716;9.266;2022-11-18T15:44:39;7.07;;;3.13;;
17059;SDS011;8646;49.716;9.266;2022-11-18T15:47:43;32.73;;;14.03;;
17059;SDS011;8646;49.716;9.266;2022-11-18T15:50:46;15.57;;;8.40;;
17059;SDS011;8646;49.716;9.266;2022-11-18T15:53:54;6.83;;;3.23;;
17059;SDS011;8646;49.716;9.266;2022-11-18T15:56:57;18.27;;;9.30;;
17059;SDS011;8646;49.716;9.266;2022-11-18T16:00:01;10.83;;;6.27;;
17059;SDS011;8646;49.716;9.266;2022-11-18T16:03:05;12.17;;;6.53;;
17059;SDS011;8646;49.716;9.266;2022-11-18T16:06:08;6.23;;;2.53;;
17059;SDS011;8646;49.716;9.266;2022-11-18T16:09:11;8.33;;;4.03;;
17059;SDS011;8646;49.716;9.266;2022-11-18T16:12:16;4.13;;;2.20;;
17059;SDS011;8646;49.716;9.266;2022-11-18T16:15:37;32.37;;;16.97;;
17059;SDS011;8646;49.716;9.266;2022-11-18T16:18:52;20.80;;;10.00;;
17059;SDS011;8646;49.716;9.266;2022-11-18T16:21:55;13.70;;;5.43;;
17059;SDS011;8646;49.716;9.266;2022-11-18T16:24:58;5.93;;;2.83;;
17059;SDS011;8646;49.716;9.266;2022-11-18T16:28:00;18.80;;;9.47;;
17059;SDS011;8646;49.716;9.266;2022-11-18T16:31:08;21.10;;;7.77;;
17059;SDS011;8646;49.716;9.266;2022-11-18T16:34:36;16.27;;;7.33;;
17059;SDS011;8646;49.716;9.266;2022-11-18T16:37:39;34.73;;;19.47;;
17059;SDS011;8646;49.716;9.266;2022-11-18T16:40:42;16.60;;;7.97;;
17059;SDS011;8646;49.716;9.266;2022-11-18T16:43:47;24.90;;;14.07;;
17059;SDS011;8646;49.716;9.266;2022-11-18T16:46:50;6.07;;;2.07;;
17059;SDS011;8646;49.716;9.266;2022-11-18T16:49:55;20.37;;;10.20;;
17059;SDS011;8646;49.716;9.266;2022-11-18T16:52:58;23.90;;;13.37;;
17059;SDS011;8646;49.716;9.266;2022-11-18T16:56:01;15.67;;;8.90;;
17059;SDS011;8646;49.716;9.266;2022-11-18T16:59:05;21.17;;;11.67;;
17059;SDS011;8646;49.716;9.266;2022-11-18T17:02:12;19.57;;;11.50;;
17059;SDS011;8646;49.716;9.266;2022-11-18T17:05:17;24.87;;;12.90;;
17059;SDS011;8646;49.716;9.266;2022-11-18T17:08:20;17.00;;;7.27;;
17059;SDS011;8646;49.716;9.266;2022-11-18T17:11:23;23.17;;;12.20;;
17059;SDS011;8646;49.716;9.266;2022-11-18T17:14:25;14.77;;;5.33;;
17059;SDS011;8646;49.716;9.266;2022-11-18T17:17:30;8.23;;;2.77;;
17059;SDS011;8646;49.716;9.266;2022-11-18T17:20:34;6.00;;;2.67;;
17059;SDS011;8646;49.716;9.266;2022-11-18T17:23:37;8.23;;;3.30;;
17059;SDS011;8646;49.716;9.266;2022-11-18T17:26:41;20.40;;;7.10;;
17059;SDS011;8646;49.716;9.266;2022-11-18T17:29:44;29.03;;;12.63;;
17059;SDS011;8646;49.716;9.266;2022-11-18T17:32:48;17.73;;;8.87;;
17059;SDS011;8646;49.716;9.266;2022-11-18T17:35:59;15.43;;;8.03;;
17059;SDS011;8646;49.716;9.266;2022-11-18T17:39:02;19.33;;;8.30;;
17059;SDS011;8646;49.716;9.266;2022-11-18T17:42:05;16.33;;;8.00;;
17059;SDS011;8646;49.716;9.266;2022-11-18T17:45:19;16.00;;;7.77;;
17059;SDS011;8646;49.716;9.266;2022-11-18T17:48:22;20.90;;;10.17;;
17059;SDS011;8646;49.716;9.266;2022-11-18T17:51:27;12.77;;;7.90;;
17059;SDS011;8646;49.716;9.266;2022-11-18T17:54:31;15.57;;;7.47;;
17059;SDS011;8646;49.716;9.266;2022-11-18T17:57:34;14.20;;;8.57;;
17059;SDS011;8646;49.716;9.266;2022-11-18T18:00:37;19.50;;;8.70;;
17059;SDS011;8646;49.716;9.266;2022-11-18T18:03:41;19.03;;;9.73;;
17059;SDS011;8646;49.716;9.266;2022-11-18T18:06:45;22.53;;;8.30;;
17059;SDS011;8646;49.716;9.266;2022-11-18T18:09:49;22.13;;;9.17;;
17059;SDS011;8646;49.716;9.266;2022-11-18T18:12:52;15.90;;;7.97;;
17059;SDS011;8646;49.716;9.266;2022-11-18T18:16:12;19.83;;;8.63;;
17059;SDS011;8646;49.716;9.266;2022-11-18T18:19:15;20.50;;;9.43;;
17059;SDS011;8646;49.716;9.266;2022-11-18T18:22:20;18.03;;;9.40;;
17059;SDS011;8646;49.716;9.266;2022-11-18T18:25:23;23.83;;;12.53;;
17059;SDS011;8646;49.716;9.266;2022-11-18T18:28:26;23.93;;;11.97;;
17059;SDS011;8646;49.716;9.266;2022-11-18T18:31:31;30.27;;;15.53;;
17059;SDS011;8646;49.716;9.266;2022-11-18T18:34:36;23.40;;;12.10;;
17059;SDS011;8646;49.716;9.266;2022-11-18T18:37:40;24.40;;;12.40;;
17059;SDS011;8646;49.716;9.266;2022-11-18T18:40:43;27.70;;;10.67;;
17059;SDS011;8646;49.716;9.266;2022-11-18T18:43:45;23.30;;;11.30;;
17059;SDS011;8646;49.716;9.266;2022-11-18T18:46:49;17.80;;;9.57;;
17059;SDS011;8646;49.716;9.266;2022-11-18T18:49:51;20.70;;;9.53;;
17059;SDS011;8646;49.716;9.266;2022-11-18T18:52:55;15.97;;;9.13;;
17059;SDS011;8646;49.716;9.266;2022-11-18T18:55:58;14.40;;;7.67;;
17059;SDS011;8646;49.716;9.266;2022-11-18T18:59:01;15.93;;;8.97;;
17059;SDS011;8646;49.716;9.266;2022-11-18T19:02:04;19.10;;;9.73;;
17059;SDS011;8646;49.716;9.266;2022-11-18T19:05:06;13.73;;;7.57;;
17059;SDS011;8646;49.716;9.266;2022-11-18T19:08:11;14.27;;;8.13;;
17059;SDS011;8646;49.716;9.266;2022-11-18T19:11:14;19.03;;;9.27;;